createdAt,value
2017-12-19T00:00:28.402Z,43.00
2017-12-19T00:02:56.340Z,43.50
2017-12-19T00:05:23.510Z,43.50
2017-12-19T00:07:51.614Z,44.20
2017-12-19T00:10:27.647Z,43.60
2017-12-19T00:12:54.831Z,43.60
2017-12-19T00:15:22.012Z,43.90
2017-12-19T00:17:49.178Z,43.70
2017-12-19T00:20:16.374Z,43.70
2017-12-19T00:22:45.213Z,43.90
2017-12-19T00:25:14.103Z,43.60
2017-12-19T00:27:41.279Z,43.60
2017-12-19T00:30:08.494Z,43.60
2017-12-19T00:32:36.458Z,43.60
2017-12-19T00:35:03.635Z,43.60
2017-12-19T00:37:30.802Z,43.80
2017-12-19T00:39:58.013Z,43.80
2017-12-19T00:42:26.104Z,43.50
2017-12-19T00:44:53.272Z,43.50
2017-12-19T00:47:21.373Z,43.50
2017-12-19T00:49:49.311Z,44.10
2017-12-19T00:52:17.394Z,44.10
2017-12-19T00:54:44.562Z,43.70
2017-12-19T00:57:12.506Z,44.00
2017-12-19T00:59:40.465Z,43.60
2017-12-19T01:02:07.635Z,43.50
2017-12-19T01:04:34.803Z,43.60
2017-12-19T01:07:01.971Z,43.90
2017-12-19T01:09:29.909Z,43.50
2017-12-19T01:11:58.059Z,43.50
2017-12-19T01:14:25.224Z,43.40
2017-12-19T01:16:52.393Z,43.40
2017-12-19T01:19:19.563Z,43.50
2017-12-19T01:21:47.497Z,43.60
2017-12-19T01:24:16.343Z,43.40
2017-12-19T01:26:44.415Z,43.40
2017-12-19T01:29:12.494Z,43.50
2017-12-19T01:31:39.693Z,43.60
2017-12-19T01:34:07.831Z,43.50
2017-12-19T01:36:35.025Z,43.40
2017-12-19T01:39:02.193Z,43.30
2017-12-19T01:41:30.130Z,43.40
2017-12-19T01:43:58.083Z,43.30
2017-12-19T01:46:25.265Z,43.40
2017-12-19T01:48:52.436Z,43.90
2017-12-19T01:51:20.393Z,43.70
2017-12-19T01:53:47.576Z,43.60
2017-12-19T01:56:14.741Z,43.40
2017-12-19T01:58:42.869Z,43.30
2017-12-19T02:01:10.083Z,43.40
2017-12-19T02:03:37.247Z,44.20
2017-12-19T02:06:04.458Z,43.70
2017-12-19T02:08:31.625Z,43.40
2017-12-19T02:10:59.708Z,43.30
2017-12-19T02:13:26.911Z,43.40
2017-12-19T02:15:54.853Z,44.00
2017-12-19T02:18:22.030Z,43.90
2017-12-19T02:20:50.846Z,43.40
2017-12-19T02:23:18.954Z,43.30
2017-12-19T02:25:46.122Z,43.40
2017-12-19T02:28:14.196Z,43.30
2017-12-19T02:30:42.311Z,43.40
2017-12-19T02:33:09.490Z,43.80
2017-12-19T02:35:36.653Z,43.80
2017-12-19T02:38:03.819Z,43.50
2017-12-19T02:40:31.942Z,43.50
2017-12-19T02:43:05.034Z,43.50
2017-12-19T02:45:32.233Z,43.40
2017-12-19T02:47:59.402Z,43.80
2017-12-19T02:50:27.517Z,43.90
2017-12-19T02:52:55.635Z,43.60
2017-12-19T02:55:24.457Z,43.40
2017-12-19T02:57:52.389Z,43.70
2017-12-19T03:00:19.593Z,43.70
2017-12-19T03:02:47.526Z,43.10
2017-12-19T03:05:15.636Z,43.60
2017-12-19T03:07:43.694Z,43.70
2017-12-19T03:10:12.679Z,43.50
2017-12-19T03:12:40.618Z,43.70
2017-12-19T03:15:08.603Z,44.10
2017-12-19T03:17:35.775Z,43.90
2017-12-19T03:20:03.715Z,43.50
2017-12-19T03:22:31.733Z,43.50
2017-12-19T03:25:00.438Z,43.50
2017-12-19T03:27:27.609Z,43.50
2017-12-19T03:29:54.820Z,44.20
2017-12-19T03:32:22.909Z,43.80
2017-12-19T03:34:51.017Z,43.70
2017-12-19T03:37:19.122Z,43.70
2017-12-19T03:39:47.238Z,44.10
2017-12-19T03:42:14.441Z,44.00
2017-12-19T03:44:41.650Z,43.70
2017-12-19T03:47:08.814Z,43.70
2017-12-19T03:49:36.838Z,43.40
2017-12-19T03:52:05.593Z,43.50
2017-12-19T03:54:33.558Z,44.00
2017-12-19T03:57:00.725Z,43.60
2017-12-19T03:59:27.934Z,44.30
2017-12-19T04:01:56.046Z,44.00
2017-12-19T04:04:24.006Z,43.60
2017-12-19T04:06:51.970Z,43.70
2017-12-19T04:09:20.121Z,43.60
2017-12-19T04:11:47.321Z,43.50
2017-12-19T04:14:15.384Z,43.90
2017-12-19T04:16:42.586Z,43.70
2017-12-19T04:19:09.831Z,43.60
2017-12-19T04:21:37.823Z,43.70
2017-12-19T04:24:05.798Z,43.80
2017-12-19T04:26:33.775Z,43.70
2017-12-19T04:29:00.946Z,43.70
2017-12-19T04:31:28.168Z,44.10
2017-12-19T04:33:56.234Z,43.90
2017-12-19T04:36:23.394Z,43.80
2017-12-19T04:38:51.503Z,43.70
2017-12-19T04:41:18.665Z,43.80
2017-12-19T04:43:46.647Z,44.20
2017-12-19T04:46:14.621Z,43.90
2017-12-19T04:48:42.550Z,43.90
2017-12-19T04:51:09.749Z,43.90
2017-12-19T04:53:38.469Z,43.80
2017-12-19T04:56:05.673Z,43.70
2017-12-19T04:58:33.609Z,44.10
2017-12-19T05:01:00.822Z,44.10
2017-12-19T05:03:27.988Z,44.00
2017-12-19T05:05:55.164Z,44.20
2017-12-19T05:08:22.383Z,43.90
2017-12-19T05:10:49.572Z,43.90
2017-12-19T05:13:16.738Z,44.60
2017-12-19T05:15:44.714Z,44.20
2017-12-19T05:18:13.786Z,44.20
2017-12-19T05:20:41.764Z,44.00
2017-12-19T05:23:08.966Z,44.00
2017-12-19T05:25:36.907Z,44.10
2017-12-19T05:28:05.777Z,44.30
2017-12-19T05:30:33.658Z,44.10
2017-12-19T05:33:00.946Z,44.10
2017-12-19T05:35:28.889Z,44.20
2017-12-19T05:37:56.097Z,44.20
2017-12-19T05:40:23.267Z,44.30
2017-12-19T05:42:51.315Z,44.30
2017-12-19T05:45:18.479Z,44.40
2017-12-19T05:47:45.647Z,44.30
2017-12-19T05:50:12.817Z,44.60
2017-12-19T05:52:40.941Z,44.30
2017-12-19T05:55:09.018Z,44.30
2017-12-19T05:57:36.186Z,44.10
2017-12-19T06:00:04.120Z,44.10
2017-12-19T06:02:32.043Z,44.10
2017-12-19T06:04:59.260Z,44.20
2017-12-19T06:07:26.431Z,44.10
2017-12-19T06:09:54.422Z,44.50
2017-12-19T06:12:22.586Z,44.40
2017-12-19T06:14:49.757Z,44.50
2017-12-19T06:17:17.731Z,44.80
2017-12-19T06:19:45.673Z,45.10
2017-12-19T06:22:13.687Z,44.50
2017-12-19T06:24:40.862Z,44.80
2017-12-19T06:27:08.066Z,44.60
2017-12-19T06:29:35.233Z,44.60
2017-12-19T06:32:03.171Z,44.70
2017-12-19T06:34:30.375Z,44.70
2017-12-19T06:36:57.583Z,44.90
2017-12-19T06:39:25.728Z,44.90
2017-12-19T06:41:53.798Z,44.90
2017-12-19T06:44:20.974Z,44.80
2017-12-19T06:46:48.158Z,44.80
2017-12-19T06:49:16.094Z,44.80
2017-12-19T06:51:43.411Z,44.70
2017-12-19T06:54:10.626Z,44.70
2017-12-19T06:56:37.881Z,44.70
2017-12-19T06:59:05.882Z,44.60
2017-12-19T07:01:33.067Z,44.60
2017-12-19T07:04:00.294Z,44.90
2017-12-19T07:06:27.501Z,45.00
2017-12-19T07:08:57.470Z,44.90
2017-12-19T07:11:25.433Z,44.70
2017-12-19T07:13:52.638Z,44.60
2017-12-19T07:16:20.714Z,44.30
2017-12-19T07:18:47.877Z,44.50
2017-12-19T07:21:15.090Z,44.40
2017-12-19T07:23:42.411Z,44.30
2017-12-19T07:26:09.634Z,44.50
2017-12-19T07:28:36.806Z,44.50
2017-12-19T07:31:05.597Z,44.60
2017-12-19T07:33:33.522Z,44.70
2017-12-19T07:36:01.640Z,44.70
2017-12-19T07:38:29.571Z,44.80
2017-12-19T07:40:56.743Z,44.70
2017-12-19T07:43:24.675Z,44.90
2017-12-19T07:45:52.748Z,44.90
2017-12-19T07:48:19.957Z,45.30
2017-12-19T07:50:48.648Z,45.30
2017-12-19T07:53:15.810Z,45.20
2017-12-19T07:55:43.013Z,45.20
2017-12-19T07:58:10.229Z,45.30
2017-12-19T08:00:37.517Z,45.30
2017-12-19T08:03:04.687Z,45.40
2017-12-19T08:05:33.528Z,45.20
2017-12-19T08:08:01.597Z,45.20
2017-12-19T08:10:28.790Z,45.20
2017-12-19T08:13:02.209Z,45.30
2017-12-19T08:15:30.325Z,45.30
2017-12-19T08:17:59.202Z,45.00
2017-12-19T08:20:28.089Z,45.30
2017-12-19T08:22:56.965Z,45.90
2017-12-19T08:25:24.170Z,45.30
2017-12-19T08:27:52.251Z,45.00
2017-12-19T08:30:20.562Z,44.90
2017-12-19T08:32:48.573Z,44.90
2017-12-19T08:35:16.499Z,45.20
2017-12-19T08:37:43.665Z,45.20
2017-12-19T08:40:10.829Z,45.30
2017-12-19T08:42:38.794Z,45.70
2017-12-19T08:45:06.870Z,45.60
2017-12-19T08:47:34.841Z,45.60
2017-12-19T08:50:02.772Z,45.50
2017-12-19T08:52:29.971Z,45.50
2017-12-19T08:54:58.850Z,45.70
2017-12-19T08:57:26.826Z,45.80
2017-12-19T08:59:54.778Z,45.80
2017-12-19T09:02:22.032Z,45.70
2017-12-19T09:04:50.171Z,45.80
2017-12-19T09:07:17.373Z,45.70
2017-12-19T09:09:46.158Z,46.30
2017-12-19T09:12:13.362Z,45.90
2017-12-19T09:14:41.433Z,46.20
2017-12-19T09:17:09.038Z,46.10
2017-12-19T09:19:36.202Z,46.10
2017-12-19T09:22:03.370Z,46.10
2017-12-19T09:24:32.146Z,46.30
2017-12-19T09:27:00.110Z,46.20
2017-12-19T09:29:27.274Z,46.30
2017-12-19T09:31:55.243Z,46.10
2017-12-19T09:34:23.174Z,46.50
2017-12-19T09:36:50.378Z,46.30
2017-12-19T09:39:18.349Z,46.90
2017-12-19T09:41:47.206Z,46.60
2017-12-19T09:44:14.406Z,46.50
2017-12-19T09:46:42.491Z,46.40
2017-12-19T09:49:09.692Z,46.50
2017-12-19T09:51:36.869Z,46.40
2017-12-19T09:54:04.841Z,46.50
2017-12-19T09:56:32.802Z,46.50
2017-12-19T09:59:01.654Z,46.40
2017-12-19T10:01:29.828Z,46.30
2017-12-19T10:03:56.994Z,46.90
2017-12-19T10:06:25.072Z,46.70
2017-12-19T10:08:53.129Z,47.10
2017-12-19T10:11:21.851Z,46.30
2017-12-19T10:13:50.757Z,46.70
2017-12-19T10:16:18.208Z,46.60
2017-12-19T10:18:46.949Z,46.60
2017-12-19T10:21:15.018Z,46.50
2017-12-19T10:23:43.077Z,46.30
2017-12-19T10:26:11.285Z,46.10
2017-12-19T10:28:39.367Z,46.20
2017-12-19T10:31:07.429Z,46.40
2017-12-19T10:33:35.397Z,46.40
2017-12-19T10:36:03.398Z,46.30
2017-12-19T10:38:32.329Z,46.40
2017-12-19T10:40:59.530Z,46.30
2017-12-19T10:43:27.622Z,46.50
2017-12-19T10:45:56.454Z,46.30
2017-12-19T10:48:24.526Z,46.20
2017-12-19T10:50:52.678Z,46.50
2017-12-19T10:53:19.877Z,46.70
2017-12-19T10:55:47.973Z,46.60
2017-12-19T10:58:15.915Z,46.70
2017-12-19T11:00:43.894Z,46.70
2017-12-19T11:03:11.058Z,46.70
2017-12-19T11:05:39.152Z,46.80
2017-12-19T11:08:07.086Z,46.90
2017-12-19T11:10:35.102Z,46.80
2017-12-19T11:13:03.275Z,46.60
2017-12-19T11:15:30.486Z,46.70
2017-12-19T11:17:57.686Z,46.80
2017-12-19T11:20:25.699Z,47.30
2017-12-19T11:22:52.861Z,47.10
2017-12-19T11:25:20.070Z,47.10
2017-12-19T11:27:47.274Z,46.90
2017-12-19T11:30:14.437Z,47.10
2017-12-19T11:32:42.402Z,47.40
2017-12-19T11:35:10.338Z,47.60
2017-12-19T11:37:38.359Z,47.10
2017-12-19T11:40:06.295Z,47.00
2017-12-19T11:42:33.498Z,47.00
2017-12-19T11:45:00.696Z,47.00
2017-12-19T11:47:27.966Z,46.90
2017-12-19T11:49:55.278Z,47.10
2017-12-19T11:52:22.444Z,46.80
2017-12-19T11:54:50.423Z,47.10
2017-12-19T11:57:17.598Z,47.00
2017-12-19T11:59:45.603Z,47.30
2017-12-19T12:02:12.791Z,47.30
2017-12-19T12:04:39.963Z,47.10
2017-12-19T12:07:07.910Z,47.20
2017-12-19T12:09:35.114Z,47.10
2017-12-19T12:12:02.358Z,46.90
2017-12-19T12:14:30.291Z,48.00
2017-12-19T12:16:57.493Z,47.40
2017-12-19T12:19:24.658Z,47.20
2017-12-19T12:21:51.868Z,47.40
2017-12-19T12:24:19.053Z,47.40
2017-12-19T12:26:46.978Z,47.20
2017-12-19T12:29:14.935Z,47.10
2017-12-19T12:31:42.143Z,47.50
2017-12-19T12:34:09.393Z,47.50
2017-12-19T12:36:36.618Z,47.40
2017-12-19T12:39:04.816Z,47.20
2017-12-19T12:41:32.018Z,47.20
2017-12-19T12:43:59.187Z,47.40
2017-12-19T12:46:26.413Z,47.40
2017-12-19T12:48:53.614Z,47.40
2017-12-19T12:51:21.548Z,47.60
2017-12-19T12:53:48.755Z,47.50
2017-12-19T12:56:16.714Z,47.50
2017-12-19T12:58:43.917Z,47.50
2017-12-19T13:01:11.081Z,47.50
2017-12-19T13:03:38.254Z,47.50
2017-12-19T13:06:06.196Z,48.00
2017-12-19T13:08:33.408Z,47.90
2017-12-19T13:11:00.576Z,47.80
2017-12-19T13:13:27.783Z,47.70
2017-12-19T13:15:54.953Z,47.80
2017-12-19T13:18:23.731Z,48.40
2017-12-19T13:20:52.673Z,48.90
2017-12-19T13:23:20.643Z,48.40
2017-12-19T13:25:48.734Z,48.10
2017-12-19T13:28:15.901Z,48.00
2017-12-19T13:30:43.111Z,48.20
2017-12-19T13:33:10.310Z,48.00
2017-12-19T13:35:37.514Z,48.20
2017-12-19T13:38:04.687Z,48.30
2017-12-19T13:40:31.993Z,48.00
2017-12-19T13:42:59.929Z,48.10
2017-12-19T13:45:27.104Z,48.10
2017-12-19T13:47:55.065Z,48.30
2017-12-19T13:50:22.337Z,48.90
2017-12-19T13:52:50.414Z,48.20
2017-12-19T13:55:18.351Z,48.20
2017-12-19T13:57:45.566Z,48.10
2017-12-19T14:00:12.750Z,48.50
2017-12-19T14:02:41.674Z,48.50
2017-12-19T14:05:09.676Z,49.00
2017-12-19T14:07:36.877Z,49.00
2017-12-19T14:10:04.097Z,48.90
2017-12-19T14:12:31.266Z,48.70
2017-12-19T14:14:59.255Z,48.40
2017-12-19T14:17:27.314Z,48.40
2017-12-19T14:19:54.482Z,48.70
2017-12-19T14:22:21.776Z,48.60
2017-12-19T14:24:48.943Z,48.40
2017-12-19T14:27:16.138Z,48.00
2017-12-19T14:29:44.302Z,48.00
2017-12-19T14:32:11.514Z,48.30
2017-12-19T14:34:38.710Z,48.10
2017-12-19T14:37:05.885Z,48.10
2017-12-19T14:39:34.593Z,48.30
2017-12-19T14:42:02.563Z,48.20
2017-12-19T14:44:29.730Z,48.30
2017-12-19T14:46:56.898Z,48.20
2017-12-19T14:49:25.046Z,48.20
2017-12-19T14:51:53.126Z,48.20
2017-12-19T14:54:20.293Z,48.20
2017-12-19T14:56:48.442Z,48.40
2017-12-19T14:59:15.617Z,48.40
2017-12-19T15:01:43.599Z,48.30
2017-12-19T15:04:10.838Z,48.30
2017-12-19T15:06:38.918Z,48.40
2017-12-19T15:09:06.087Z,48.40
2017-12-19T15:11:34.219Z,48.50
2017-12-19T15:14:01.393Z,48.60
2017-12-19T15:16:28.562Z,48.60
2017-12-19T15:18:55.765Z,48.60
2017-12-19T15:21:22.944Z,48.60
2017-12-19T15:23:51.157Z,48.70
2017-12-19T15:26:18.322Z,48.70
2017-12-19T15:28:47.213Z,48.70
2017-12-19T15:31:15.187Z,49.40
2017-12-19T15:33:43.116Z,48.90
2017-12-19T15:36:10.344Z,48.80
2017-12-19T15:38:37.509Z,48.90
2017-12-19T15:41:04.714Z,48.90
2017-12-19T15:43:33.597Z,48.70
2017-12-19T15:46:00.820Z,48.70
2017-12-19T15:48:28.795Z,49.00
2017-12-19T15:50:55.957Z,49.10
2017-12-19T15:53:24.029Z,49.00
2017-12-19T15:55:52.121Z,49.00
2017-12-19T15:58:20.990Z,49.90
2017-12-19T16:00:48.154Z,48.90
2017-12-19T16:03:15.899Z,49.00
2017-12-19T16:05:44.002Z,49.30
2017-12-19T16:08:11.942Z,49.40
2017-12-19T16:10:39.955Z,49.20
2017-12-19T16:13:08.829Z,49.10
2017-12-19T16:15:36.046Z,49.10
2017-12-19T16:18:03.990Z,49.00
2017-12-19T16:20:31.989Z,49.00
2017-12-19T16:22:59.150Z,49.10
2017-12-19T16:25:27.287Z,49.00
2017-12-19T16:27:54.454Z,49.00
2017-12-19T16:30:22.390Z,48.50
2017-12-19T16:32:51.129Z,48.60
2017-12-19T16:35:18.645Z,48.60
2017-12-19T16:37:46.728Z,48.80
2017-12-19T16:40:13.897Z,48.70
2017-12-19T16:42:41.885Z,48.60
2017-12-19T16:45:09.049Z,48.80
2017-12-19T16:47:37.059Z,48.80
2017-12-19T16:50:04.229Z,48.60
2017-12-19T16:52:32.342Z,48.80
2017-12-19T16:54:59.507Z,48.60
2017-12-19T16:57:27.572Z,48.80
2017-12-19T16:59:54.738Z,48.90
2017-12-19T17:02:23.553Z,48.90
2017-12-19T17:04:51.534Z,48.90
2017-12-19T17:07:18.705Z,48.90
2017-12-19T17:09:45.917Z,48.80
2017-12-19T17:12:14.819Z,49.00
2017-12-19T17:14:42.014Z,49.00
2017-12-19T17:17:09.209Z,49.00
2017-12-19T17:19:37.138Z,48.90
2017-12-19T17:22:04.306Z,48.90
2017-12-19T17:24:31.470Z,48.90
2017-12-19T17:26:59.445Z,49.90
2017-12-19T17:29:28.281Z,49.10
2017-12-19T17:31:55.482Z,49.10
2017-12-19T17:34:23.467Z,49.70
2017-12-19T17:36:51.401Z,49.10
2017-12-19T17:39:18.568Z,49.10
2017-12-19T17:41:45.779Z,49.30
2017-12-19T17:44:12.973Z,49.30
2017-12-19T17:46:40.184Z,49.20
2017-12-19T17:49:07.373Z,49.10
2017-12-19T17:51:35.353Z,49.60
2017-12-19T17:54:03.322Z,49.90
2017-12-19T17:56:31.304Z,49.30
2017-12-19T17:58:59.278Z,49.20
2017-12-19T18:01:27.210Z,49.40
2017-12-19T18:03:54.436Z,49.20
2017-12-19T18:06:21.605Z,49.40
2017-12-19T18:08:50.482Z,49.50
2017-12-19T18:11:17.677Z,49.50
2017-12-19T18:13:44.883Z,49.50
2017-12-19T18:16:12.145Z,49.40
2017-12-19T18:18:39.324Z,49.30
2017-12-19T18:21:06.549Z,49.30
2017-12-19T18:23:33.774Z,49.20
2017-12-19T18:26:00.975Z,49.20
2017-12-19T18:28:28.145Z,49.10
2017-12-19T18:30:56.151Z,49.50
2017-12-19T18:33:23.416Z,48.80
2017-12-19T18:35:51.322Z,49.00
2017-12-19T18:38:18.527Z,49.00
2017-12-19T18:40:45.694Z,49.00
2017-12-19T18:43:12.905Z,49.00
2017-12-19T18:45:40.069Z,48.90
2017-12-19T18:48:07.238Z,49.00
2017-12-19T18:50:35.363Z,48.90
2017-12-19T18:53:02.664Z,49.00
2017-12-19T18:55:30.598Z,48.90
2017-12-19T18:57:58.537Z,49.20
2017-12-19T19:00:25.782Z,49.20
2017-12-19T19:02:52.942Z,49.10
2017-12-19T19:05:20.113Z,49.10
2017-12-19T19:07:47.282Z,49.00
2017-12-19T19:10:15.213Z,49.20
2017-12-19T19:12:42.378Z,49.10
2017-12-19T19:15:09.771Z,49.20
2017-12-19T19:17:37.847Z,49.40
2017-12-19T19:20:05.909Z,49.40
2017-12-19T19:22:33.874Z,49.10
2017-12-19T19:25:01.801Z,49.10
2017-12-19T19:27:29.101Z,49.10
2017-12-19T19:29:57.966Z,48.80
2017-12-19T19:32:25.129Z,48.80
2017-12-19T19:34:53.058Z,48.60
2017-12-19T19:37:20.354Z,48.90
2017-12-19T19:39:48.278Z,49.60
2017-12-19T19:42:15.442Z,49.00
2017-12-19T19:44:42.607Z,48.70
2017-12-19T19:47:09.776Z,48.40
2017-12-19T19:49:38.750Z,49.40
2017-12-19T19:52:06.662Z,48.70
2017-12-19T19:54:33.849Z,48.80
2017-12-19T19:57:01.014Z,48.70
2017-12-19T19:59:28.278Z,48.80
2017-12-19T20:01:55.443Z,48.80
2017-12-19T20:04:23.463Z,48.80
2017-12-19T20:06:50.626Z,48.60
2017-12-19T20:09:17.799Z,48.70
2017-12-19T20:11:44.990Z,48.60
2017-12-19T20:14:12.966Z,48.80
2017-12-19T20:16:40.905Z,48.80
2017-12-19T20:19:08.127Z,48.80
2017-12-19T20:21:35.297Z,48.80
2017-12-19T20:24:02.463Z,48.80
2017-12-19T20:26:30.417Z,48.70
2017-12-19T20:28:57.626Z,48.90
2017-12-19T20:31:24.799Z,48.80
2017-12-19T20:33:51.962Z,48.80
2017-12-19T20:36:19.974Z,48.90
2017-12-19T20:38:47.947Z,49.20
2017-12-19T20:41:15.882Z,49.10
2017-12-19T20:43:43.958Z,49.00
2017-12-19T20:46:12.026Z,49.20
2017-12-19T20:48:39.207Z,49.20
2017-12-19T20:51:07.138Z,49.00
2017-12-19T20:53:35.234Z,48.90
2017-12-19T20:56:03.345Z,49.00
2017-12-19T20:58:30.510Z,49.40
2017-12-19T21:00:58.550Z,49.10
2017-12-19T21:03:27.398Z,49.00
2017-12-19T21:05:55.391Z,49.00
2017-12-19T21:08:23.519Z,49.40
2017-12-19T21:10:51.659Z,49.10
2017-12-19T21:13:20.526Z,49.10
2017-12-19T21:15:47.694Z,49.00
2017-12-19T21:18:15.674Z,49.10
2017-12-19T21:20:43.692Z,49.50
2017-12-19T21:23:10.894Z,48.80
2017-12-19T21:25:38.834Z,48.60
2017-12-19T21:28:06.671Z,48.60
2017-12-19T21:30:33.989Z,48.50
2017-12-19T21:33:01.954Z,48.30
2017-12-19T21:35:29.881Z,48.30
2017-12-19T21:37:57.045Z,48.30
2017-12-19T21:40:24.245Z,48.30
2017-12-19T21:42:51.409Z,48.60
2017-12-19T21:45:19.378Z,48.60
2017-12-19T21:47:46.546Z,48.50
2017-12-19T21:50:13.745Z,48.40
2017-12-19T21:52:41.696Z,48.70
2017-12-19T21:55:09.722Z,48.60
2017-12-19T21:57:36.942Z,48.60
2017-12-19T22:00:04.901Z,48.50
2017-12-19T22:02:32.108Z,48.50
2017-12-19T22:04:59.317Z,48.50
2017-12-19T22:07:27.245Z,48.70
2017-12-19T22:09:55.173Z,48.50
2017-12-19T22:12:22.337Z,48.50
2017-12-19T22:14:49.501Z,48.50
2017-12-19T22:17:16.665Z,48.60
2017-12-19T22:19:43.887Z,48.60
2017-12-19T22:22:11.057Z,48.40
2017-12-19T22:24:38.254Z,48.70
2017-12-19T22:27:07.527Z,48.70
2017-12-19T22:29:34.721Z,48.70
2017-12-19T22:32:03.405Z,48.80
2017-12-19T22:34:31.418Z,48.80
2017-12-19T22:36:59.389Z,48.80
2017-12-19T22:39:26.557Z,48.90
2017-12-19T22:41:53.722Z,48.70
2017-12-19T22:44:20.922Z,48.70
2017-12-19T22:46:48.903Z,48.60
2017-12-19T22:49:16.074Z,48.60
2017-12-19T22:51:43.270Z,48.50
2017-12-19T22:54:11.237Z,48.60
2017-12-19T22:56:38.436Z,48.50
2017-12-19T22:59:05.626Z,48.40
2017-12-19T23:01:32.829Z,48.50
2017-12-19T23:03:59.995Z,48.60
2017-12-19T23:06:27.194Z,48.70
2017-12-19T23:08:55.147Z,48.50
2017-12-19T23:11:23.314Z,48.50
2017-12-19T23:13:50.478Z,48.40
2017-12-19T23:16:17.642Z,48.30
2017-12-19T23:18:44.806Z,48.60
2017-12-19T23:21:12.738Z,49.30
2017-12-19T23:23:39.942Z,49.20
2017-12-19T23:26:07.106Z,49.00
2017-12-19T23:28:34.270Z,48.20
2017-12-19T23:31:01.439Z,48.00
2017-12-19T23:33:28.606Z,48.00
2017-12-19T23:35:55.766Z,48.00
2017-12-19T23:38:22.935Z,48.00
2017-12-19T23:40:50.903Z,48.00
2017-12-19T23:43:18.829Z,48.10
2017-12-19T23:45:46.934Z,48.10
2017-12-19T23:48:15.783Z,48.30
2017-12-19T23:50:43.886Z,48.20
2017-12-19T23:53:11.050Z,48.30
2017-12-19T23:55:39.769Z,49.40
2017-12-19T23:58:06.978Z,48.70
